Time;durP1;ratioP1;P1;durP2;ratioP2;P2;SDS_P1;SDS_P2;PMS_P1;PMS_P2;Temp;Humidity;BMP_temperature;BMP_pressure;BME280_temperature;BME280_humidity;BME280_pressure;Samples;Min_cycle;Max_cycle;Signal;HPM_P1;HPM_P2
2021/10/01 00:01:10;;;;;;;2.50;2.30;;;9.40;99.90;;;;;;5034009;28;20177;-51
2021/10/01 00:03:35;;;;;;;3.23;2.67;;;9.40;99.90;;;;;;5031460;28;20193;-51
2021/10/01 00:06:01;;;;;;;2.47;2.27;;;9.50;99.90;;;;;;5036789;28;20182;-51
2021/10/01 00:08:27;;;;;;;2.63;2.20;;;9.50;99.90;;;;;;5032384;28;20220;-51
2021/10/01 00:10:52;;;;;;;2.53;2.33;;;9.40;99.90;;;;;;5029237;28;20179;-51
2021/10/01 00:13:18;;;;;;;3.27;2.40;;;9.60;99.90;;;;;;5031560;28;20249;-51
2021/10/01 00:15:44;;;;;;;3.80;2.60;;;9.40;99.90;;;;;;5034276;28;20239;-51
2021/10/01 00:18:11;;;;;;;5.40;2.30;;;9.60;99.90;;;;;;5036454;28;20221;-51
2021/10/01 00:20:37;;;;;;;4.82;2.65;;;9.20;99.90;;;;;;5030162;28;20269;-51
2021/10/01 00:23:03;;;;;;;2.80;2.00;;;9.40;99.90;;;;;;5029730;28;20206;-51
2021/10/01 00:25:29;;;;;;;4.03;2.50;;;9.20;99.90;;;;;;5027821;28;20691;-51
2021/10/01 00:27:55;;;;;;;2.43;2.23;;;9.40;99.90;;;;;;5024143;28;20996;-51
2021/10/01 00:30:20;;;;;;;3.17;2.43;;;9.50;99.90;;;;;;5022726;28;20437;-52
2021/10/01 00:32:48;;;;;;;3.40;2.67;;;9.40;99.90;;;;;;5030957;28;20216;-51
2021/10/01 00:35:14;;;;;;;1.88;1.63;;;9.40;99.90;;;;;;5031267;28;20485;-51
2021/10/01 00:37:39;;;;;;;2.50;2.30;;;9.40;99.90;;;;;;5029184;28;20210;-51
2021/10/01 00:40:06;;;;;;;2.80;1.87;;;9.50;99.90;;;;;;5030138;28;20586;-51
2021/10/01 00:42:32;;;;;;;3.83;2.20;;;9.50;99.90;;;;;;5028926;28;20276;-51
2021/10/01 00:44:58;;;;;;;2.40;2.20;;;9.60;99.90;;;;;;5033929;28;20214;-52
2021/10/01 00:47:24;;;;;;;6.63;2.97;;;9.70;99.90;;;;;;5030755;28;20437;-51
2021/10/01 00:49:50;;;;;;;3.47;2.38;;;9.60;99.90;;;;;;5030354;28;20442;-51
2021/10/01 00:52:18;;;;;;;3.13;2.33;;;9.60;99.90;;;;;;5029541;28;20190;-51
2021/10/01 00:54:44;;;;;;;2.25;2.05;;;9.20;99.90;;;;;;5028770;28;20624;-51
2021/10/01 00:57:10;;;;;;;2.30;2.10;;;9.40;99.90;;;;;;5028935;28;20308;-51
2021/10/01 00:59:35;;;;;;;2.35;2.10;;;9.30;99.90;;;;;;5027720;28;20203;-51
2021/10/01 01:02:01;;;;;;;3.80;2.40;;;9.30;99.90;;;;;;5027607;28;20184;-51
2021/10/01 01:04:27;;;;;;;2.30;2.10;;;9.20;99.90;;;;;;5035369;28;20655;-51
2021/10/01 01:07:18;;;;;;;2.60;2.20;;;9.20;99.90;;;;;;5034916;28;20178;-51
2021/10/01 01:10:06;;;;;;;2.40;2.20;;;9.20;99.90;;;;;;5018936;28;20416;-51
2021/10/01 01:12:52;;;;;;;2.50;2.20;;;8.90;99.90;;;;;;5029204;28;20186;-51
2021/10/01 01:15:25;;;;;;;2.15;1.95;;;8.90;99.90;;;;;;5027043;28;20205;-51
2021/10/01 01:18:06;;;;;;;3.17;1.90;;;9.10;99.90;;;;;;5025420;28;20217;-52
2021/10/01 01:20:49;;;;;;;2.05;1.85;;;9.40;99.90;;;;;;5033485;28;20174;-51
2021/10/01 01:23:33;;;;;;;5.22;2.15;;;9.10;99.90;;;;;;5025134;28;20191;-51
2021/10/01 01:26:26;;;;;;;1.85;1.75;;;9.00;99.90;;;;;;5026664;28;20658;-51
2021/10/01 01:28:52;;;;;;;3.95;2.22;;;9.30;99.90;;;;;;5026955;28;20203;-52
2021/10/01 01:31:49;;;;;;;3.90;2.03;;;8.90;99.90;;;;;;5026598;28;20200;-51
2021/10/01 01:34:39;;;;;;;2.58;2.10;;;8.80;99.90;;;;;;5014151;28;20504;-51
2021/10/01 01:37:10;;;;;;;2.13;1.90;;;9.10;99.90;;;;;;5025683;28;20711;-51
2021/10/01 01:39:37;;;;;;;5.70;1.95;;;9.00;99.90;;;;;;5023182;28;20210;-51
2021/10/01 01:42:04;;;;;;;2.45;2.20;;;8.90;99.90;;;;;;5029885;28;20186;-51
2021/10/01 01:44:32;;;;;;;1.90;1.70;;;8.80;99.90;;;;;;5025652;28;20715;-51
2021/10/01 01:47:00;;;;;;;3.72;2.05;;;9.00;99.90;;;;;;5033144;28;20205;-51
2021/10/01 01:49:29;;;;;;;2.10;1.90;;;9.00;99.90;;;;;;5029555;28;20309;-51
2021/10/01 01:51:56;;;;;;;3.15;2.67;;;8.90;99.90;;;;;;5024965;28;20193;-51
2021/10/01 01:54:24;;;;;;;4.85;2.15;;;9.10;99.90;;;;;;5025866;28;20186;-52
2021/10/01 01:56:51;;;;;;;6.28;2.05;;;8.90;99.90;;;;;;5029695;28;20202;-51
2021/10/01 01:59:17;;;;;;;2.05;1.92;;;9.10;99.90;;;;;;5031233;28;20221;-51
2021/10/01 02:01:44;;;;;;;4.43;2.75;;;9.00;99.90;;;;;;5028825;28;20435;-51
2021/10/01 02:04:11;;;;;;;2.35;1.90;;;8.70;99.90;;;;;;5029806;28;20240;-51
2021/10/01 02:06:38;;;;;;;2.80;2.00;;;8.90;99.90;;;;;;5029008;28;20197;-51
2021/10/01 02:09:04;;;;;;;3.08;2.33;;;8.90;99.90;;;;;;5020114;28;20281;-51
2021/10/01 02:11:31;;;;;;;1.85;1.50;;;8.90;99.90;;;;;;5029849;28;20186;-51
2021/10/01 02:14:00;;;;;;;3.55;2.40;;;8.80;99.90;;;;;;5031954;28;20229;-51
2021/10/01 02:16:26;;;;;;;4.30;2.05;;;8.40;99.90;;;;;;5036885;28;20578;-51
2021/10/01 02:18:54;;;;;;;2.38;1.70;;;8.90;99.90;;;;;;5035656;28;20247;-51
2021/10/01 02:21:22;;;;;;;2.20;1.95;;;8.80;99.90;;;;;;5029547;28;20201;-51
2021/10/01 02:23:49;;;;;;;3.00;2.78;;;8.90;99.90;;;;;;5028229;28;20179;-51
2021/10/01 02:26:40;;;;;;;2.65;1.85;;;9.10;99.90;;;;;;5036094;28;20186;-51
2021/10/01 02:29:25;;;;;;;2.38;2.03;;;8.80;99.90;;;;;;5033036;28;20228;-52
2021/10/01 02:32:13;;;;;;;2.50;2.10;;;8.10;99.90;;;;;;5037289;28;20199;-51
2021/10/01 02:34:41;;;;;;;2.38;1.90;;;8.80;99.90;;;;;;5039791;28;20668;-51
2021/10/01 02:37:08;;;;;;;1.70;1.60;;;8.90;99.90;;;;;;5031366;28;20218;-51
2021/10/01 02:39:39;;;;;;;1.90;1.80;;;8.60;99.90;;;;;;5026716;28;20207;-51
2021/10/01 02:42:07;;;;;;;2.80;2.40;;;8.70;99.90;;;;;;5024814;28;20665;-51
2021/10/01 02:44:34;;;;;;;2.10;1.80;;;8.90;99.90;;;;;;5019674;28;20258;-51
2021/10/01 02:47:00;;;;;;;3.42;2.20;;;8.70;99.90;;;;;;5033178;28;20189;-51
2021/10/01 02:49:26;;;;;;;2.90;2.20;;;8.60;99.90;;;;;;5031721;28;20202;-51
2021/10/01 02:51:57;;;;;;;2.00;1.85;;;8.80;99.90;;;;;;5033004;28;20213;-51
2021/10/01 02:54:35;;;;;;;2.40;1.80;;;8.90;99.90;;;;;;5026449;28;20232;-51
2021/10/01 02:57:25;;;;;;;3.05;1.80;;;8.70;99.90;;;;;;5032380;28;20229;-51
2021/10/01 02:59:53;;;;;;;3.08;1.80;;;9.00;99.90;;;;;;5021667;28;20247;-51
2021/10/01 03:02:22;;;;;;;2.28;1.98;;;9.00;99.90;;;;;;5034523;28;20206;-51
2021/10/01 03:04:54;;;;;;;4.00;2.10;;;8.80;99.90;;;;;;5041910;28;20188;-51
2021/10/01 03:07:22;;;;;;;1.90;1.80;;;8.70;99.90;;;;;;5027948;28;20194;-51
2021/10/01 03:09:49;;;;;;;2.38;2.00;;;8.80;99.90;;;;;;5032628;28;20273;-51
2021/10/01 03:12:18;;;;;;;1.92;1.70;;;9.00;99.90;;;;;;5043043;28;20186;-51
2021/10/01 03:14:45;;;;;;;2.00;1.80;;;8.70;99.90;;;;;;5017573;28;20210;-51
2021/10/01 03:17:12;;;;;;;4.57;2.20;;;8.70;99.90;;;;;;5034774;28;20205;-51
2021/10/01 03:19:38;;;;;;;2.45;1.90;;;8.60;99.90;;;;;;5040747;28;20216;-51
2021/10/01 03:22:05;;;;;;;3.40;2.25;;;8.90;99.90;;;;;;5034626;28;20182;-51
2021/10/01 03:24:31;;;;;;;1.90;1.75;;;8.70;99.90;;;;;;5030809;28;20245;-51
2021/10/01 03:26:57;;;;;;;2.97;2.67;;;9.10;99.90;;;;;;5025736;28;20187;-51
2021/10/01 03:29:23;;;;;;;3.35;2.72;;;8.90;99.90;;;;;;5023936;28;20687;-51
2021/10/01 03:31:49;;;;;;;2.70;2.10;;;9.10;99.90;;;;;;5031164;28;20194;-51
2021/10/01 03:34:16;;;;;;;2.92;1.95;;;8.70;99.90;;;;;;5031703;28;20673;-51
2021/10/01 03:36:43;;;;;;;3.80;1.92;;;8.80;99.90;;;;;;5034161;28;20202;-51
2021/10/01 03:39:10;;;;;;;2.25;2.05;;;8.50;99.90;;;;;;5026155;28;20217;-51
2021/10/01 03:41:36;;;;;;;2.10;2.00;;;8.70;99.90;;;;;;5027090;28;20191;-51
2021/10/01 03:44:04;;;;;;;2.60;2.15;;;8.60;99.90;;;;;;5027554;28;20652;-51
2021/10/01 03:46:29;;;;;;;2.20;1.90;;;8.80;99.90;;;;;;5044325;28;20250;-51
2021/10/01 03:48:56;;;;;;;7.07;3.10;;;8.60;99.90;;;;;;5031288;28;20210;-51
2021/10/01 03:51:23;;;;;;;1.85;1.75;;;9.00;99.90;;;;;;5030374;28;20445;-51
2021/10/01 03:53:50;;;;;;;3.15;2.20;;;9.00;99.90;;;;;;5028077;28;20193;-51
2021/10/01 03:56:16;;;;;;;3.20;2.90;;;9.00;99.90;;;;;;5031782;28;20603;-51
2021/10/01 03:58:44;;;;;;;2.37;2.17;;;8.80;99.90;;;;;;5028816;28;20663;-51
2021/10/01 04:01:10;;;;;;;4.03;1.90;;;8.80;99.90;;;;;;5021698;28;20864;-51
2021/10/01 04:03:35;;;;;;;3.50;2.20;;;8.90;99.90;;;;;;5034826;28;20190;-51
2021/10/01 04:06:01;;;;;;;2.70;2.00;;;8.90;99.90;;;;;;5031058;28;20209;-51
2021/10/01 04:08:26;;;;;;;2.40;1.93;;;8.80;99.90;;;;;;5035949;28;20301;-51
2021/10/01 04:10:52;;;;;;;2.70;1.87;;;8.60;99.90;;;;;;5040661;28;20182;-51
2021/10/01 04:13:18;;;;;;;2.87;2.33;;;8.50;99.90;;;;;;5039535;28;20177;-51
2021/10/01 04:15:44;;;;;;;3.03;2.23;;;8.50;99.90;;;;;;5028728;28;20187;-51
2021/10/01 04:18:09;;;;;;;3.37;2.70;;;8.80;99.90;;;;;;5031087;28;21068;-51
2021/10/01 04:20:37;;;;;;;2.37;2.10;;;8.50;99.90;;;;;;5031081;28;20435;-51
2021/10/01 04:23:03;;;;;;;1.95;1.75;;;8.50;99.90;;;;;;5026394;28;20305;-51
2021/10/01 04:25:30;;;;;;;4.75;2.40;;;8.30;99.90;;;;;;5035067;28;20182;-51
2021/10/01 04:27:56;;;;;;;2.22;2.03;;;8.50;99.90;;;;;;5023787;28;20202;-51
2021/10/01 04:30:22;;;;;;;3.27;2.97;;;8.70;99.90;;;;;;5029115;28;20231;-51
2021/10/01 04:32:58;;;;;;;2.47;2.28;;;8.80;99.90;;;;;;5029972;28;20411;-51
2021/10/01 04:35:24;;;;;;;2.95;2.38;;;8.60;99.90;;;;;;5025975;28;20194;-51
2021/10/01 04:37:50;;;;;;;2.30;2.10;;;8.70;99.90;;;;;;5025720;28;20207;-49
2021/10/01 04:40:16;;;;;;;5.30;2.77;;;8.80;99.90;;;;;;5022063;28;20437;-49
2021/10/01 04:42:41;;;;;;;6.73;2.40;;;8.80;99.90;;;;;;5023304;28;20456;-48
2021/10/01 04:45:08;;;;;;;2.33;2.13;;;8.70;99.90;;;;;;5026913;28;20216;-48
2021/10/01 04:47:33;;;;;;;2.85;2.20;;;8.80;99.90;;;;;;5026475;28;20444;-49
2021/10/01 04:49:59;;;;;;;3.20;2.37;;;9.10;99.90;;;;;;5024306;28;20186;-50
2021/10/01 04:52:25;;;;;;;3.13;2.20;;;8.70;99.90;;;;;;5025561;28;20186;-49
2021/10/01 04:54:51;;;;;;;2.87;2.40;;;9.00;99.90;;;;;;5018529;28;20441;-50
2021/10/01 04:57:16;;;;;;;2.00;1.90;;;8.70;99.90;;;;;;5029545;28;20210;-50
2021/10/01 04:59:42;;;;;;;2.50;2.30;;;8.90;99.90;;;;;;5018047;28;20262;-50
2021/10/01 05:02:08;;;;;;;2.40;2.20;;;8.60;99.90;;;;;;5029331;28;20190;-49
2021/10/01 05:04:34;;;;;;;4.50;2.17;;;9.00;99.90;;;;;;5021665;28;20269;-48
2021/10/01 05:06:59;;;;;;;3.60;2.20;;;8.80;99.90;;;;;;5018188;28;20415;-49
2021/10/01 05:09:25;;;;;;;2.60;2.40;;;8.90;99.90;;;;;;5019406;28;20348;-48
2021/10/01 05:11:51;;;;;;;2.97;2.67;;;8.90;99.90;;;;;;5025337;28;20191;-49
2021/10/01 05:14:16;;;;;;;2.80;2.50;;;9.00;99.90;;;;;;5021900;28;20256;-51
2021/10/01 05:16:43;;;;;;;3.80;2.47;;;8.50;99.90;;;;;;5016795;28;20308;-50
2021/10/01 05:19:09;;;;;;;2.50;2.30;;;8.80;99.90;;;;;;5024596;28;20202;-50
2021/10/01 05:21:34;;;;;;;3.10;2.70;;;8.70;99.90;;;;;;5021547;28;20187;-50
2021/10/01 05:24:00;;;;;;;4.17;2.83;;;8.70;99.90;;;;;;5016492;28;20235;-50
2021/10/01 05:26:26;;;;;;;2.77;2.37;;;9.00;99.90;;;;;;5019431;28;20174;-49
2021/10/01 05:28:53;;;;;;;3.70;2.60;;;8.90;99.90;;;;;;5019037;28;20816;-48
2021/10/01 05:31:19;;;;;;;2.65;2.40;;;8.80;99.90;;;;;;5015508;28;20218;-48
2021/10/01 05:33:45;;;;;;;3.60;2.47;;;8.80;99.90;;;;;;5022695;28;20228;-49
2021/10/01 05:36:10;;;;;;;3.47;2.83;;;8.70;99.90;;;;;;5024305;28;20481;-48
2021/10/01 05:38:36;;;;;;;6.60;2.70;;;9.10;99.90;;;;;;5021463;28;20212;-49
2021/10/01 05:41:02;;;;;;;3.73;3.30;;;8.90;99.90;;;;;;5028495;28;20441;-50
2021/10/01 05:43:28;;;;;;;3.90;2.90;;;8.80;99.90;;;;;;5027512;28;20178;-49
2021/10/01 05:45:56;;;;;;;7.60;4.33;;;9.00;99.90;;;;;;5027831;28;20465;-49
2021/10/01 05:48:24;;;;;;;4.50;2.72;;;8.90;99.90;;;;;;5021405;28;20230;-49
2021/10/01 05:50:57;;;;;;;3.03;2.80;;;9.10;99.90;;;;;;5024038;28;20269;-49
2021/10/01 05:56:08;;;;;;;2.88;2.63;;;9.00;99.90;;;;;;5020552;28;20245;-49
2021/10/01 05:58:41;;;;;;;2.88;2.45;;;8.90;99.90;;;;;;5015982;28;20198;-49
2021/10/01 06:01:08;;;;;;;2.70;2.40;;;9.00;99.90;;;;;;5032286;28;20197;-49
2021/10/01 06:03:34;;;;;;;4.88;2.58;;;9.20;99.90;;;;;;5029263;28;20229;-49
2021/10/01 06:06:00;;;;;;;5.45;2.25;;;8.70;99.90;;;;;;5023663;28;20182;-48
2021/10/01 06:08:26;;;;;;;3.23;2.87;;;9.20;99.90;;;;;;5026217;28;20719;-49
2021/10/01 06:10:51;;;;;;;9.40;3.03;;;9.10;99.90;;;;;;5032207;28;20178;-49
2021/10/01 06:13:17;;;;;;;2.67;2.30;;;8.80;99.90;;;;;;5025616;28;20182;-49
2021/10/01 06:15:44;;;;;;;3.95;2.83;;;8.90;99.90;;;;;;5025284;28;20192;-50
2021/10/01 06:18:10;;;;;;;2.58;2.30;;;9.10;99.90;;;;;;5030666;28;20206;-50
2021/10/01 06:20:36;;;;;;;6.37;3.20;;;8.70;99.90;;;;;;5030953;28;20528;-48
2021/10/01 06:23:02;;;;;;;5.88;3.47;;;8.80;99.90;;;;;;5026972;28;20186;-48
2021/10/01 06:25:27;;;;;;;7.00;3.87;;;8.90;99.90;;;;;;5028283;28;20269;-49
2021/10/01 06:27:53;;;;;;;3.47;2.90;;;9.00;99.90;;;;;;5032666;28;20948;-49
2021/10/01 06:30:19;;;;;;;4.33;2.67;;;9.30;99.90;;;;;;5026925;28;20219;-48
2021/10/01 06:32:45;;;;;;;2.50;2.30;;;9.20;99.90;;;;;;5035378;28;20546;-49
2021/10/01 06:35:11;;;;;;;4.80;2.50;;;9.10;99.90;;;;;;5040950;28;20216;-49
2021/10/01 06:37:37;;;;;;;2.85;2.50;;;9.30;99.90;;;;;;5030479;28;20220;-50
2021/10/01 06:40:05;;;;;;;3.23;2.57;;;9.40;99.90;;;;;;5026069;28;20269;-48
2021/10/01 06:42:31;;;;;;;3.60;2.90;;;9.70;99.90;;;;;;5029895;28;20516;-49
2021/10/01 06:45:01;;;;;;;2.75;2.40;;;9.70;99.90;;;;;;5025865;28;20186;-49
2021/10/01 06:47:47;;;;;;;3.28;2.75;;;10.10;99.90;;;;;;5028338;28;20273;-49
2021/10/01 06:51:27;;;;;;;3.20;2.80;;;10.10;99.90;;;;;;5030138;28;20186;-50
2021/10/01 07:34:59;;;;;;;4.43;3.05;;;11.90;99.90;;;;;;5024374;28;20179;-49
2021/10/01 08:20:45;;;;;;;4.68;3.75;;;13.50;99.30;;;;;;5032006;28;20236;-51
2021/10/01 08:23:11;;;;;;;5.38;3.90;;;14.10;99.50;;;;;;5027686;28;20278;-50
2021/10/01 08:25:38;;;;;;;6.05;4.40;;;14.00;98.60;;;;;;5031605;28;20286;-51
2021/10/01 08:28:05;;;;;;;4.00;3.38;;;13.90;98.60;;;;;;5019452;28;20214;-50
2021/10/01 08:30:31;;;;;;;4.28;2.10;;;14.10;98.40;;;;;;5028181;28;20553;-54
2021/10/01 08:32:56;;;;;;;2.47;1.90;;;14.40;97.70;;;;;;5026634;28;20186;-50
2021/10/01 08:35:24;;;;;;;4.70;2.20;;;14.70;97.30;;;;;;5028418;28;20942;-51
2021/10/01 08:37:54;;;;;;;4.88;2.30;;;15.00;96.70;;;;;;5024352;28;20333;-51
2021/10/01 08:40:21;;;;;;;4.18;2.72;;;15.00;96.50;;;;;;5020405;28;20174;-51
2021/10/01 08:42:49;;;;;;;3.17;2.03;;;15.40;96.30;;;;;;5022887;28;20507;-51
2021/10/01 08:45:16;;;;;;;3.58;2.47;;;15.40;95.70;;;;;;5030414;28;20937;-49
2021/10/01 08:47:43;;;;;;;2.58;2.10;;;15.50;95.10;;;;;;5025599;28;20214;-50
2021/10/01 08:50:11;;;;;;;2.67;2.15;;;15.90;95.20;;;;;;5029433;28;20178;-50
2021/10/01 08:52:38;;;;;;;3.10;2.10;;;15.80;95.30;;;;;;5036696;28;20237;-51
2021/10/01 08:55:07;;;;;;;2.17;2.03;;;15.60;94.70;;;;;;5023141;28;20178;-49
2021/10/01 08:57:33;;;;;;;2.40;2.05;;;16.10;94.90;;;;;;5029871;28;20301;-50
2021/10/01 09:00:00;;;;;;;4.35;1.92;;;16.80;94.30;;;;;;5034360;28;20658;-50
2021/10/01 09:02:26;;;;;;;2.55;1.80;;;17.10;93.20;;;;;;5031605;28;20224;-51
2021/10/01 09:04:55;;;;;;;2.05;1.90;;;18.60;91.30;;;;;;5033646;28;20210;-51
2021/10/01 09:07:23;;;;;;;2.80;2.30;;;19.40;87.90;;;;;;5019938;28;20578;-50
2021/10/01 09:09:54;;;;;;;3.22;2.20;;;19.20;87.30;;;;;;5022917;28;20182;-50
2021/10/01 09:12:21;;;;;;;2.33;2.00;;;19.10;87.10;;;;;;5023028;28;20201;-51
2021/10/01 09:14:56;;;;;;;3.25;2.15;;;19.10;86.80;;;;;;5028175;28;20190;-49
2021/10/01 09:17:33;;;;;;;2.35;2.05;;;18.60;88.20;;;;;;5023263;28;20204;-52
2021/10/01 09:19:59;;;;;;;2.40;2.20;;;18.90;88.10;;;;;;5013224;28;20185;-50
2021/10/01 09:22:29;;;;;;;3.20;2.40;;;19.50;86.80;;;;;;5029021;28;20189;-51
2021/10/01 09:25:19;;;;;;;4.45;2.30;;;20.00;85.70;;;;;;5033121;28;20201;-52
2021/10/01 09:27:47;;;;;;;6.13;3.27;;;21.90;80.80;;;;;;5028607;28;20348;-53
2021/10/01 09:30:16;;;;;;;2.60;2.30;;;22.00;76.30;;;;;;5022460;28;20507;-55
2021/10/01 09:33:01;;;;;;;5.90;2.10;;;22.60;74.50;;;;;;5028055;28;20890;-54
2021/10/01 09:35:27;;;;;;;2.60;2.00;;;23.50;72.60;;;;;;5023613;28;20456;-55
2021/10/01 09:38:03;;;;;;;1.93;1.83;;;24.00;70.70;;;;;;5030125;28;20483;-55
2021/10/01 09:40:29;;;;;;;5.20;2.43;;;24.60;68.60;;;;;;5029709;28;20192;-55
2021/10/01 09:42:55;;;;;;;1.87;1.67;;;24.70;65.80;;;;;;5029433;28;20431;-55
2021/10/01 09:45:20;;;;;;;3.50;3.00;;;25.80;65.10;;;;;;5019078;28;20706;-56
2021/10/01 09:47:48;;;;;;;4.00;2.50;;;27.40;60.40;;;;;;5023743;28;20205;-56
2021/10/01 09:50:19;;;;;;;2.80;2.03;;;28.90;58.00;;;;;;5028736;28;20590;-55
2021/10/01 09:52:48;;;;;;;2.33;2.13;;;29.90;54.10;;;;;;5025321;28;20502;-55
2021/10/01 09:55:15;;;;;;;1.63;1.37;;;29.30;52.50;;;;;;5029139;28;20429;-55
2021/10/01 09:57:58;;;;;;;2.30;1.63;;;29.30;51.90;;;;;;5029028;28;20492;-55
2021/10/01 10:00:54;;;;;;;3.13;2.70;;;28.70;52.80;;;;;;5026072;28;20436;-55
2021/10/01 10:03:26;;;;;;;2.43;2.03;;;29.10;51.40;;;;;;5028542;28;20523;-55
2021/10/01 10:06:05;;;;;;;3.30;2.23;;;28.90;52.00;;;;;;5032299;28;21003;-55
2021/10/01 10:08:38;;;;;;;1.40;1.30;;;28.30;52.60;;;;;;5041680;28;20472;-55
2021/10/01 10:11:12;;;;;;;2.10;1.60;;;28.60;51.60;;;;;;5029144;28;20928;-55
2021/10/01 10:13:43;;;;;;;1.67;1.57;;;27.00;53.20;;;;;;5027611;28;20428;-55
2021/10/01 10:16:14;;;;;;;2.17;1.80;;;26.20;54.00;;;;;;5017541;28;20428;-55
2021/10/01 10:18:40;;;;;;;4.60;2.10;;;25.60;56.10;;;;;;5028934;28;20866;-55
2021/10/01 10:21:07;;;;;;;4.40;1.60;;;24.80;57.50;;;;;;5022716;28;20433;-55
2021/10/01 10:23:33;;;;;;;1.50;1.40;;;24.00;58.30;;;;;;5021754;28;20575;-55
2021/10/01 10:25:58;;;;;;;1.80;1.70;;;23.40;60.40;;;;;;5025947;28;20419;-55
2021/10/01 10:28:24;;;;;;;2.30;1.90;;;23.00;62.20;;;;;;5021422;28;20210;-55
2021/10/01 10:30:52;;;;;;;2.60;1.40;;;22.50;63.90;;;;;;5028607;28;20300;-55
2021/10/01 10:33:42;;;;;;;2.35;1.23;;;22.20;63.80;;;;;;5048594;28;20940;-55
2021/10/01 10:36:41;;;;;;;1.35;1.25;;;21.70;64.40;;;;;;5026154;28;20214;-54
2021/10/01 10:39:13;;;;;;;4.60;2.72;;;21.60;63.10;;;;;;5026153;28;20230;-54
2021/10/01 10:41:39;;;;;;;2.30;1.50;;;21.20;65.10;;;;;;5027870;28;20248;-55
2021/10/01 10:44:06;;;;;;;2.95;1.48;;;21.40;65.40;;;;;;5020679;28;20209;-52
2021/10/01 10:46:34;;;;;;;3.42;1.83;;;21.60;65.90;;;;;;5032058;28;20249;-51
2021/10/01 10:49:16;;;;;;;1.50;1.40;;;22.00;65.10;;;;;;5028661;28;20678;-51
2021/10/01 10:52:07;;;;;;;1.23;1.13;;;22.80;62.90;;;;;;5027380;28;20433;-51
2021/10/01 10:54:36;;;;;;;1.90;1.30;;;23.60;59.80;;;;;;5029235;28;20434;-51
2021/10/01 10:57:17;;;;;;;1.70;1.60;;;24.30;59.00;;;;;;5032175;28;20477;-52
2021/10/01 10:59:51;;;;;;;2.00;1.83;;;24.20;59.10;;;;;;5029305;28;20476;-51
2021/10/01 11:02:41;;;;;;;1.20;1.10;;;24.20;58.70;;;;;;5034327;28;20794;-51
2021/10/01 11:05:27;;;;;;;2.10;1.20;;;23.80;57.70;;;;;;5038329;28;20519;-51
2021/10/01 11:08:03;;;;;;;1.63;1.20;;;23.00;59.20;;;;;;5025067;28;20507;-51
2021/10/01 11:10:39;;;;;;;2.20;1.30;;;22.60;60.70;;;;;;5032378;28;20470;-52
2021/10/01 11:13:23;;;;;;;1.95;1.60;;;22.40;60.50;;;;;;5028090;28;20631;-51
2021/10/01 11:16:12;;;;;;;2.45;1.10;;;22.20;60.10;;;;;;5035450;28;20184;-51
2021/10/01 11:21:43;;;;;;;1.10;0.93;;;22.00;61.30;;;;;;5032292;28;20193;-51
2021/10/01 11:24:14;;;;;;;1.55;1.40;;;22.00;61.00;;;;;;5007600;28;20336;-50
2021/10/01 11:26:48;;;;;;;1.27;1.17;;;22.00;59.70;;;;;;5030360;28;20186;-51
2021/10/01 11:29:24;;;;;;;2.20;1.40;;;22.00;59.00;;;;;;5023039;28;20783;-51
2021/10/01 11:31:53;;;;;;;1.50;1.15;;;22.00;60.00;;;;;;5035204;28;20220;-51
2021/10/01 11:34:39;;;;;;;1.65;1.27;;;22.00;59.20;;;;;;5033349;28;20190;-50
2021/10/01 11:37:33;;;;;;;2.10;1.20;;;21.90;59.80;;;;;;5030506;28;20288;-51
2021/10/01 11:40:02;;;;;;;2.80;1.17;;;21.70;60.10;;;;;;5026007;28;20232;-51
2021/10/01 11:42:37;;;;;;;1.75;1.33;;;21.70;59.60;;;;;;5026599;28;20174;-51
2021/10/01 11:45:25;;;;;;;1.95;1.75;;;21.60;60.90;;;;;;5026837;28;20579;-50
2021/10/01 11:47:58;;;;;;;1.60;1.10;;;21.60;61.90;;;;;;5029749;28;20213;-52
2021/10/01 11:50:29;;;;;;;2.00;1.17;;;21.60;59.80;;;;;;5026488;28;20170;-51
2021/10/01 11:52:58;;;;;;;2.22;1.60;;;21.70;60.80;;;;;;5033545;28;20182;-52
2021/10/01 11:55:26;;;;;;;3.05;2.15;;;21.70;61.30;;;;;;5030847;28;20178;-51
2021/10/01 11:57:52;;;;;;;1.50;1.40;;;21.80;63.00;;;;;;5030889;28;20305;-52
2021/10/01 12:00:18;;;;;;;1.27;1.00;;;21.80;59.10;;;;;;5030969;28;20289;-49
2021/10/01 12:02:46;;;;;;;1.83;1.45;;;22.10;57.00;;;;;;5029547;28;20430;-49
2021/10/01 12:05:34;;;;;;;2.70;2.20;;;22.20;56.90;;;;;;5032040;28;20276;-50
2021/10/01 12:08:05;;;;;;;1.42;1.33;;;22.20;57.50;;;;;;5025969;28;20213;-51
2021/10/01 12:10:38;;;;;;;2.03;1.17;;;22.30;57.50;;;;;;5025988;28;20178;-50
2021/10/01 12:13:16;;;;;;;2.08;1.05;;;22.60;55.70;;;;;;5033136;28;20269;-49
2021/10/01 12:15:54;;;;;;;36.53;16.13;;;22.50;55.90;;;;;;5028426;28;20660;-50
2021/10/01 12:18:45;;;;;;;1.60;1.50;;;22.50;55.30;;;;;;5028215;28;20224;-49
2021/10/01 12:21:17;;;;;;;3.45;1.73;;;22.60;56.60;;;;;;5023874;28;20753;-50
2021/10/01 12:23:59;;;;;;;1.70;1.10;;;22.50;56.40;;;;;;5028352;28;20186;-49
2021/10/01 12:26:29;;;;;;;1.73;1.20;;;22.70;56.30;;;;;;5030365;28;20178;-50
2021/10/01 12:28:59;;;;;;;2.28;1.20;;;22.60;56.80;;;;;;5027785;28;20194;-49
2021/10/01 12:31:29;;;;;;;1.40;1.10;;;22.80;56.40;;;;;;5021992;28;20193;-51
2021/10/01 12:33:57;;;;;;;1.92;1.30;;;22.70;55.70;;;;;;5032494;28;20273;-51
2021/10/01 12:36:23;;;;;;;1.47;1.37;;;22.60;57.30;;;;;;5022563;28;20560;-50
2021/10/01 12:38:53;;;;;;;1.27;1.17;;;22.60;56.60;;;;;;5030505;28;20837;-50
2021/10/01 12:41:18;;;;;;;1.92;1.70;;;22.70;56.90;;;;;;5031727;28;20180;-51
2021/10/01 12:43:50;;;;;;;1.40;1.30;;;22.70;57.10;;;;;;5029237;28;20178;-49
2021/10/01 12:46:45;;;;;;;1.83;1.50;;;22.70;57.50;;;;;;5025765;28;20178;-49
2021/10/01 12:49:24;;;;;;;2.40;1.90;;;22.60;57.60;;;;;;5030156;28;20209;-50
2021/10/01 12:52:19;;;;;;;1.85;1.60;;;22.60;58.10;;;;;;5030714;28;20189;-50
2021/10/01 12:54:52;;;;;;;2.57;1.60;;;22.70;56.00;;;;;;5030070;28;20263;-50
2021/10/01 12:57:32;;;;;;;1.67;1.30;;;22.70;56.50;;;;;;5027141;28;20579;-52
2021/10/01 12:59:59;;;;;;;3.67;1.42;;;22.80;56.00;;;;;;5025755;28;20468;-51
2021/10/01 13:02:34;;;;;;;1.85;1.45;;;22.80;56.00;;;;;;5030052;28;20776;-51
2021/10/01 13:05:15;;;;;;;1.27;1.15;;;22.80;55.70;;;;;;5028734;28;20186;-50
2021/10/01 13:07:42;;;;;;;2.13;1.50;;;22.90;56.30;;;;;;5029518;28;20256;-51
2021/10/01 13:10:37;;;;;;;1.73;1.30;;;22.90;56.40;;;;;;5027734;28;20432;-52
2021/10/01 13:13:14;;;;;;;1.60;1.50;;;23.00;56.80;;;;;;5028725;28;20532;-50
2021/10/01 13:15:49;;;;;;;1.58;1.48;;;22.80;57.30;;;;;;5029223;28;20194;-51
2021/10/01 13:18:22;;;;;;;1.67;1.50;;;22.80;57.00;;;;;;5041373;28;20606;-52
2021/10/01 13:20:54;;;;;;;2.08;1.88;;;22.80;56.70;;;;;;5031250;28;20490;-52
2021/10/01 13:23:31;;;;;;;1.98;1.48;;;22.70;57.50;;;;;;5025265;28;20255;-52
2021/10/01 13:25:59;;;;;;;2.58;1.60;;;22.80;58.00;;;;;;5027971;28;20595;-51
2021/10/01 13:28:27;;;;;;;3.15;2.60;;;22.80;58.60;;;;;;5027334;28;20206;-51
2021/10/01 13:30:54;;;;;;;1.60;1.50;;;22.80;58.90;;;;;;5024699;28;20281;-51
2021/10/01 13:33:23;;;;;;;1.57;1.40;;;22.80;59.00;;;;;;5029122;28;20444;-51
2021/10/01 13:35:50;;;;;;;2.92;1.80;;;22.80;59.40;;;;;;5028526;28;20445;-49
2021/10/01 13:38:28;;;;;;;2.07;1.87;;;22.90;59.20;;;;;;5028285;28;20234;-49
2021/10/01 13:40:54;;;;;;;1.90;1.73;;;22.80;59.80;;;;;;5018528;28;20527;-50
2021/10/01 13:43:20;;;;;;;4.57;3.07;;;22.80;61.10;;;;;;5024376;28;20687;-50
2021/10/01 13:45:46;;;;;;;2.43;2.13;;;22.70;61.40;;;;;;5020415;28;20187;-50
2021/10/01 13:48:13;;;;;;;2.97;2.07;;;22.80;62.70;;;;;;5028836;28;20460;-50
2021/10/01 13:50:40;;;;;;;4.80;2.20;;;22.80;62.90;;;;;;5020017;28;20445;-50
2021/10/01 13:53:06;;;;;;;3.88;1.90;;;22.80;63.00;;;;;;5025158;28;20537;-50
2021/10/01 13:55:31;;;;;;;2.27;2.07;;;22.80;63.40;;;;;;5019686;28;20277;-50
2021/10/01 13:57:57;;;;;;;4.97;2.37;;;22.70;64.10;;;;;;5024933;28;20221;-50
2021/10/01 14:00:24;;;;;;;1.97;1.77;;;22.80;65.30;;;;;;5025882;28;20536;-50
2021/10/01 14:02:50;;;;;;;1.92;1.83;;;22.80;64.50;;;;;;5015092;28;20179;-50
2021/10/01 14:05:16;;;;;;;2.90;2.20;;;22.80;64.50;;;;;;5026480;28;20178;-50
2021/10/01 14:07:44;;;;;;;3.65;2.67;;;22.80;65.20;;;;;;5019795;28;20301;-50
2021/10/01 14:10:31;;;;;;;3.85;3.55;;;22.70;65.30;;;;;;5013053;28;20187;-50
2021/10/01 14:12:58;;;;;;;2.60;2.40;;;22.60;66.60;;;;;;5024291;28;20190;-50
2021/10/01 14:15:26;;;;;;;3.10;2.58;;;22.60;66.60;;;;;;5026182;28;20208;-49
2021/10/01 14:17:53;;;;;;;3.47;2.63;;;22.50;67.50;;;;;;5026360;28;20217;-50
2021/10/01 14:20:22;;;;;;;2.73;2.50;;;22.60;67.40;;;;;;5025247;28;20512;-50
2021/10/01 14:22:49;;;;;;;2.55;2.35;;;22.70;67.60;;;;;;5023303;28;21068;-50
2021/10/01 14:25:16;;;;;;;3.03;2.73;;;22.60;68.10;;;;;;5026629;28;20183;-50
2021/10/01 14:27:42;;;;;;;4.50;3.20;;;22.70;68.80;;;;;;5025994;28;20502;-50
2021/10/01 14:30:11;;;;;;;3.25;2.95;;;22.70;69.20;;;;;;5025716;28;20225;-50
2021/10/01 14:32:37;;;;;;;4.35;3.25;;;22.70;69.20;;;;;;5018803;28;20191;-50
2021/10/01 14:35:04;;;;;;;5.73;3.47;;;22.70;69.40;;;;;;5029455;28;20251;-50
2021/10/01 14:37:30;;;;;;;3.60;3.30;;;22.70;70.10;;;;;;5026620;28;20460;-50
2021/10/01 14:39:57;;;;;;;5.40;3.30;;;22.80;69.50;;;;;;5021804;28;20445;-50